createdAt,value
2023-01-15T00:02:19.671Z,98043.95
2023-01-15T00:04:51.495Z,98042.89
2023-01-15T00:07:19.660Z,98046.30
2023-01-15T00:09:47.796Z,98045.91
2023-01-15T00:12:15.660Z,98046.78
2023-01-15T00:14:43.739Z,98044.56
2023-01-15T00:17:11.699Z,98047.34
2023-01-15T00:19:40.563Z,98054.10
2023-01-15T00:22:08.620Z,98058.09
2023-01-15T00:24:55.420Z,98057.97
2023-01-15T00:27:39.049Z,98056.29
2023-01-15T00:30:13.251Z,98056.69
2023-01-15T00:32:43.290Z,98057.77
2023-01-15T00:35:19.919Z,98058.30
2023-01-15T00:37:48.135Z,98055.70
2023-01-15T00:40:19.118Z,98060.22
2023-01-15T00:42:54.099Z,98057.66
2023-01-15T00:45:23.371Z,98054.73
2023-01-15T00:47:51.911Z,98055.95
2023-01-15T00:50:20.205Z,98056.28
2023-01-15T00:52:48.625Z,98061.11
2023-01-15T00:55:16.799Z,98057.63
2023-01-15T00:57:45.083Z,98056.39
2023-01-15T01:00:13.562Z,98048.59
2023-01-15T01:02:41.662Z,98045.43
2023-01-15T01:05:10.033Z,98041.96
2023-01-15T01:07:38.326Z,98036.80
2023-01-15T01:10:07.517Z,98027.80
2023-01-15T01:12:37.956Z,98023.33
2023-01-15T01:15:07.451Z,98021.09
2023-01-15T01:17:38.521Z,98019.73
2023-01-15T01:20:07.820Z,98018.52
2023-01-15T01:22:35.833Z,98016.27
2023-01-15T01:25:04.705Z,98013.48
2023-01-15T01:27:33.040Z,98016.39
2023-01-15T01:30:01.362Z,98012.20
2023-01-15T01:32:29.309Z,98009.27
2023-01-15T01:34:58.199Z,98007.86
2023-01-15T01:37:26.282Z,98009.23
2023-01-15T01:39:55.284Z,98005.92
2023-01-15T01:42:23.791Z,98000.05
2023-01-15T01:44:51.830Z,98000.03
2023-01-15T01:47:23.426Z,97999.48
2023-01-15T01:49:56.924Z,97993.45
2023-01-15T01:52:29.705Z,97992.27
2023-01-15T01:54:58.348Z,97991.42
2023-01-15T01:57:26.676Z,97990.08
2023-01-15T01:59:57.175Z,97985.27
2023-01-15T02:02:26.142Z,97985.43
2023-01-15T02:04:54.530Z,97987.65
2023-01-15T02:07:22.449Z,97985.04
2023-01-15T02:09:51.315Z,97983.80
2023-01-15T02:12:23.043Z,97983.98
2023-01-15T02:15:03.343Z,97980.31
2023-01-15T02:17:54.314Z,97979.76
2023-01-15T02:20:35.665Z,97986.29
2023-01-15T02:23:15.856Z,97984.55
2023-01-15T02:25:58.463Z,97977.97
2023-01-15T02:28:44.937Z,97975.75
2023-01-15T02:31:19.966Z,97972.32
2023-01-15T02:34:10.706Z,97967.85
2023-01-15T02:36:44.835Z,97963.38
2023-01-15T02:39:21.729Z,97963.89
2023-01-15T02:41:54.360Z,97966.13
2023-01-15T02:44:29.833Z,97967.85
2023-01-15T02:46:59.857Z,97966.48
2023-01-15T02:49:28.944Z,97963.88
2023-01-15T02:52:15.693Z,97967.68
2023-01-15T02:54:50.493Z,97971.66
2023-01-15T02:57:22.998Z,97966.46
2023-01-15T02:59:57.579Z,97962.25
2023-01-15T03:02:33.400Z,97959.96
2023-01-15T03:05:32.699Z,97959.25
2023-01-15T03:08:05.355Z,97957.32
2023-01-15T03:10:37.951Z,97957.52
2023-01-15T03:13:07.426Z,97961.50
2023-01-15T03:16:32.676Z,97966.02
2023-01-15T03:19:18.356Z,97966.21
2023-01-15T03:22:05.204Z,97965.53
2023-01-15T03:24:40.663Z,97965.57
2023-01-15T03:27:10.663Z,97965.94
2023-01-15T03:29:45.046Z,97962.50
2023-01-15T03:32:14.997Z,97961.63
2023-01-15T03:34:54.970Z,97962.49
2023-01-15T03:37:27.588Z,97959.76
2023-01-15T03:39:58.387Z,97958.71
2023-01-15T03:43:10.548Z,97963.21
2023-01-15T03:45:42.697Z,97960.42
2023-01-15T03:48:20.805Z,97957.98
2023-01-15T03:51:07.649Z,97959.03
2023-01-15T03:53:44.002Z,97955.39
2023-01-15T03:56:23.650Z,97953.14
2023-01-15T03:59:02.569Z,97952.07
2023-01-15T04:01:45.779Z,97947.73
2023-01-15T04:04:15.809Z,97946.85
2023-01-15T04:06:45.234Z,97945.45
2023-01-15T04:09:16.077Z,97943.88
2023-01-15T04:11:47.291Z,97945.27
2023-01-15T04:14:15.896Z,97940.61
2023-01-15T04:16:50.770Z,97932.14
2023-01-15T04:19:19.095Z,97926.10
2023-01-15T04:21:58.709Z,97921.94
2023-01-15T04:24:27.096Z,97916.41
2023-01-15T04:26:55.301Z,97916.24
2023-01-15T04:29:23.973Z,97917.98
2023-01-15T04:31:57.608Z,97915.55
2023-01-15T04:34:27.542Z,97911.02
2023-01-15T04:36:57.147Z,97906.80
2023-01-15T04:39:25.201Z,97907.60
2023-01-15T04:42:12.018Z,97905.97
2023-01-15T04:44:40.201Z,97902.63
2023-01-15T04:47:08.926Z,97902.60
2023-01-15T04:49:37.120Z,97905.52
2023-01-15T04:52:05.885Z,97902.88
2023-01-15T04:54:34.118Z,97907.04
2023-01-15T04:57:02.392Z,97904.62
2023-01-15T04:59:30.506Z,97903.05
2023-01-15T05:02:04.227Z,97900.28
2023-01-15T05:04:35.464Z,97898.73
2023-01-15T05:07:04.813Z,97894.92
2023-01-15T05:09:33.256Z,97896.46
2023-01-15T05:12:02.031Z,97898.52
2023-01-15T05:14:30.335Z,97898.83
2023-01-15T05:17:01.583Z,97898.27
2023-01-15T05:19:29.742Z,97894.59
2023-01-15T05:21:57.953Z,97895.90
2023-01-15T05:24:26.179Z,97895.84
2023-01-15T05:26:55.381Z,97902.80
2023-01-15T05:29:24.329Z,97905.61
2023-01-15T05:31:52.736Z,97903.59
2023-01-15T05:34:20.771Z,97903.64
2023-01-15T05:36:49.341Z,97905.91
2023-01-15T05:39:17.619Z,97906.31
2023-01-15T05:41:51.869Z,97904.30
2023-01-15T05:44:25.924Z,97902.82
2023-01-15T05:47:00.467Z,97901.70
2023-01-15T05:49:31.554Z,97907.80
2023-01-15T05:52:01.522Z,97912.39
2023-01-15T05:54:32.636Z,97916.30
2023-01-15T05:57:02.040Z,97916.97
2023-01-15T05:59:31.477Z,97920.76
2023-01-15T06:02:00.230Z,97926.25
2023-01-15T06:04:28.485Z,97921.19
2023-01-15T06:06:57.585Z,97922.17
2023-01-15T06:09:28.138Z,97926.05
2023-01-15T06:11:57.639Z,97928.00
2023-01-15T06:14:25.980Z,97928.44
2023-01-15T06:16:54.179Z,97928.02
2023-01-15T06:19:22.473Z,97927.97
2023-01-15T06:21:50.495Z,97927.60
2023-01-15T06:24:20.282Z,97932.05
2023-01-15T06:26:48.760Z,97933.95
2023-01-15T06:29:19.137Z,97932.44
2023-01-15T06:31:48.526Z,97930.54
2023-01-15T06:34:16.771Z,97931.46
2023-01-15T06:36:45.311Z,97931.74
2023-01-15T06:39:13.452Z,97935.05
2023-01-15T06:42:00.086Z,97929.88
2023-01-15T06:44:46.826Z,97920.21
2023-01-15T06:47:21.190Z,97919.89
2023-01-15T06:49:52.057Z,97915.92
2023-01-15T06:52:24.719Z,97916.94
2023-01-15T06:54:53.233Z,97914.42
2023-01-15T06:57:22.329Z,97911.17
2023-01-15T06:59:51.585Z,97913.80
2023-01-15T07:02:21.827Z,97910.55
2023-01-15T07:04:51.108Z,97911.75
2023-01-15T07:07:20.696Z,97912.64
2023-01-15T07:09:49.643Z,97910.08
2023-01-15T07:12:18.593Z,97910.30
2023-01-15T07:14:47.291Z,97913.29
2023-01-15T07:17:15.703Z,97915.59
2023-01-15T07:19:44.528Z,97918.05
2023-01-15T07:22:13.151Z,97915.98
2023-01-15T07:24:41.560Z,97915.34
2023-01-15T07:27:09.699Z,97910.21
2023-01-15T07:29:38.108Z,97908.26
2023-01-15T07:32:06.326Z,97909.59
2023-01-15T07:34:34.532Z,97909.19
2023-01-15T07:37:02.704Z,97906.86
2023-01-15T07:39:31.995Z,97900.20
2023-01-15T07:42:19.049Z,97893.33
2023-01-15T07:45:05.715Z,97886.66
2023-01-15T07:47:52.719Z,97882.60
2023-01-15T07:50:24.006Z,97879.86
2023-01-15T07:52:53.396Z,97877.63
2023-01-15T07:55:22.829Z,97880.42
2023-01-15T07:57:52.491Z,97878.16
2023-01-15T08:00:23.645Z,97872.55
2023-01-15T08:02:52.121Z,97870.48
2023-01-15T08:05:20.431Z,97869.46
2023-01-15T08:07:50.353Z,97873.11
2023-01-15T08:10:19.816Z,97871.70
2023-01-15T08:13:19.530Z,97873.61
2023-01-15T08:15:47.610Z,97868.80
2023-01-15T08:18:15.588Z,97865.21
2023-01-15T08:20:45.601Z,97865.10
2023-01-15T08:23:15.031Z,97860.27
2023-01-15T08:25:42.948Z,97859.73
2023-01-15T08:28:14.328Z,97853.00
2023-01-15T08:30:42.579Z,97849.20
2023-01-15T08:33:10.970Z,97846.09
2023-01-15T08:35:39.103Z,97845.60
2023-01-15T08:38:08.084Z,97847.70
2023-01-15T08:40:57.136Z,97845.48
2023-01-15T08:43:30.675Z,97848.27
2023-01-15T08:46:04.201Z,97848.27
2023-01-15T08:48:33.486Z,97845.35
2023-01-15T08:51:07.346Z,97846.08
2023-01-15T08:53:37.953Z,97842.09
2023-01-15T08:56:17.149Z,97837.27
2023-01-15T08:58:47.377Z,97832.95
2023-01-15T09:01:16.281Z,97828.47
2023-01-15T09:03:44.746Z,97825.20
2023-01-15T09:06:13.762Z,97818.65
2023-01-15T09:08:41.773Z,97811.02
2023-01-15T09:11:10.041Z,97809.80
2023-01-15T09:13:38.443Z,97805.13
2023-01-15T09:16:08.083Z,97801.13
2023-01-15T09:18:39.708Z,97792.64
2023-01-15T09:21:07.830Z,97786.90
2023-01-15T09:23:36.420Z,97785.34
2023-01-15T09:26:07.251Z,97784.47
2023-01-15T09:28:35.978Z,97773.70
2023-01-15T09:31:04.343Z,97768.32
2023-01-15T09:33:32.517Z,97761.73
2023-01-15T09:36:00.869Z,97759.65
2023-01-15T09:38:29.103Z,97750.96
2023-01-15T09:41:01.127Z,97744.87
2023-01-15T09:43:51.185Z,97745.59
2023-01-15T09:46:39.095Z,97745.23
2023-01-15T09:49:22.309Z,97740.34
2023-01-15T09:52:07.851Z,97734.92
2023-01-15T09:55:04.913Z,97726.60
2023-01-15T09:57:34.594Z,97724.55
2023-01-15T10:00:06.884Z,97721.79
2023-01-15T10:02:46.917Z,97717.60
2023-01-15T10:05:20.123Z,97718.64
2023-01-15T10:08:10.141Z,97716.35
2023-01-15T10:10:46.934Z,97713.05
2023-01-15T10:13:27.571Z,97708.52
2023-01-15T10:15:58.368Z,97703.97
2023-01-15T10:18:29.025Z,97699.94
2023-01-15T10:21:30.883Z,97698.88
2023-01-15T10:24:20.676Z,97694.85
2023-01-15T10:26:57.767Z,97695.72
2023-01-15T10:29:42.571Z,97693.45
2023-01-15T10:33:03.612Z,97691.71
2023-01-15T10:36:05.272Z,97686.12
2023-01-15T10:39:22.676Z,97681.26
2023-01-15T10:42:18.951Z,97680.41
2023-01-15T10:45:16.809Z,97677.14
2023-01-15T10:47:48.888Z,97673.10
2023-01-15T10:50:26.074Z,97670.13
2023-01-15T10:53:07.854Z,97665.22
2023-01-15T10:55:45.215Z,97662.80
2023-01-15T10:58:25.724Z,97659.80
2023-01-15T11:01:00.942Z,97659.95
2023-01-15T11:03:37.760Z,97654.73
2023-01-15T11:06:08.393Z,97652.60
2023-01-15T11:09:07.351Z,97650.27
2023-01-15T11:12:01.823Z,97640.02
2023-01-15T11:15:02.983Z,97633.87
2023-01-15T11:17:52.407Z,97629.30
2023-01-15T11:20:33.379Z,97622.36
2023-01-15T11:23:10.718Z,97612.77
2023-01-15T11:25:47.927Z,97610.79
2023-01-15T11:28:18.545Z,97609.01
2023-01-15T11:30:55.731Z,97600.17
2023-01-15T11:33:25.227Z,97597.09
2023-01-15T11:35:58.606Z,97594.88
2023-01-15T11:38:42.699Z,97587.77
2023-01-15T11:41:45.736Z,97581.95
2023-01-15T11:44:34.611Z,97574.55
2023-01-15T11:47:22.419Z,97569.74
2023-01-15T11:50:14.425Z,97566.60
2023-01-15T11:52:51.067Z,97559.45
2023-01-15T11:55:22.635Z,97552.51
2023-01-15T11:57:52.031Z,97546.22
2023-01-15T12:00:30.771Z,97540.29
2023-01-15T12:03:21.927Z,97536.39
2023-01-15T12:05:58.451Z,97535.13
2023-01-15T12:08:39.843Z,97533.14
2023-01-15T12:11:29.742Z,97532.30
2023-01-15T12:14:25.685Z,97529.17
2023-01-15T12:17:31.014Z,97520.20
2023-01-15T12:20:18.387Z,97516.42
2023-01-15T12:23:23.322Z,97516.75
2023-01-15T12:25:58.043Z,97514.48
2023-01-15T12:29:01.854Z,97512.91
2023-01-15T12:31:39.634Z,97511.67
2023-01-15T12:34:19.980Z,97509.61
2023-01-15T12:37:10.674Z,97504.13
2023-01-15T12:39:52.346Z,97497.02
2023-01-15T12:42:43.520Z,97499.59
2023-01-15T12:45:25.676Z,97496.59
2023-01-15T12:48:02.804Z,97490.54
2023-01-15T12:50:37.052Z,97488.83
2023-01-15T12:53:24.241Z,97492.25
2023-01-15T12:56:08.855Z,97492.05
2023-01-15T12:58:49.686Z,97494.15
2023-01-15T13:01:29.463Z,97493.29
2023-01-15T13:04:00.678Z,97491.03
2023-01-15T13:06:29.539Z,97490.19
2023-01-15T13:09:25.675Z,97488.49
2023-01-15T13:11:54.729Z,97487.52
2023-01-15T13:14:25.129Z,97486.52
2023-01-15T13:17:06.028Z,97485.50
2023-01-15T13:20:10.098Z,97482.56
2023-01-15T13:23:08.065Z,97477.75
2023-01-15T13:26:13.086Z,97477.61
2023-01-15T13:28:53.491Z,97473.63
2023-01-15T13:31:52.887Z,97467.92
2023-01-15T13:34:50.794Z,97463.43
2023-01-15T13:37:26.796Z,97463.80
2023-01-15T13:40:05.080Z,97461.55
2023-01-15T13:42:34.617Z,97462.45
2023-01-15T13:45:37.389Z,97465.23
2023-01-15T13:48:29.869Z,97468.70
2023-01-15T13:51:01.992Z,97467.67
2023-01-15T13:53:38.440Z,97467.14
2023-01-15T13:56:15.443Z,97464.20
2023-01-15T13:58:56.288Z,97461.77
2023-01-15T14:01:36.323Z,97459.73
2023-01-15T14:04:10.883Z,97459.39
2023-01-15T14:06:51.397Z,97456.27
2023-01-15T14:09:22.929Z,97458.54
2023-01-15T14:12:22.593Z,97457.86
2023-01-15T14:15:00.081Z,97462.73
2023-01-15T14:18:03.457Z,97458.23
2023-01-15T14:20:52.700Z,97453.91
2023-01-15T14:23:33.159Z,97449.92
2023-01-15T14:26:10.456Z,97448.73
2023-01-15T14:28:57.710Z,97448.54
2023-01-15T14:31:47.287Z,97448.38
2023-01-15T14:34:28.911Z,97447.88
2023-01-15T14:37:00.858Z,97450.30
2023-01-15T14:39:41.994Z,97455.33
2023-01-15T14:42:42.989Z,97457.41
2023-01-15T14:45:11.497Z,97458.61
2023-01-15T14:47:46.620Z,97454.29
2023-01-15T14:50:28.321Z,97454.11
2023-01-15T14:53:11.513Z,97456.53
2023-01-15T14:55:58.702Z,97452.73
2023-01-15T14:58:31.110Z,97449.79
2023-01-15T15:01:05.248Z,97450.30
2023-01-15T15:03:38.538Z,97449.96
2023-01-15T15:06:12.645Z,97450.64
2023-01-15T15:08:43.455Z,97452.88
2023-01-15T15:11:47.949Z,97448.90
2023-01-15T15:14:18.607Z,97444.56
2023-01-15T15:16:50.984Z,97442.82
2023-01-15T15:19:33.337Z,97442.29
2023-01-15T15:22:06.325Z,97440.70
2023-01-15T15:24:37.118Z,97438.44
2023-01-15T15:27:31.717Z,97438.60
2023-01-15T15:30:05.496Z,97435.46
2023-01-15T15:32:40.348Z,97430.96
2023-01-15T15:35:27.787Z,97422.48
2023-01-15T15:38:00.143Z,97417.98
2023-01-15T15:40:34.110Z,97417.95
2023-01-15T15:43:35.845Z,97414.48
2023-01-15T15:46:22.996Z,97413.92
2023-01-15T15:48:58.087Z,97412.50
2023-01-15T15:51:36.643Z,97410.41
2023-01-15T15:54:16.482Z,97406.05
2023-01-15T15:56:53.075Z,97403.61
2023-01-15T15:59:37.026Z,97406.17
2023-01-15T16:02:22.119Z,97405.61
2023-01-15T16:04:53.303Z,97400.58
2023-01-15T16:07:29.938Z,97398.30
2023-01-15T16:10:02.593Z,97402.23
2023-01-15T16:12:44.815Z,97401.66
2023-01-15T16:15:19.832Z,97399.60
2023-01-15T16:17:50.000Z,97395.43
2023-01-15T16:20:21.027Z,97391.27
2023-01-15T16:22:56.216Z,97391.58
2023-01-15T16:25:37.694Z,97386.16
2023-01-15T16:28:06.378Z,97378.89
2023-01-15T16:30:35.738Z,97376.41
2023-01-15T16:33:07.336Z,97370.85
2023-01-15T16:35:37.495Z,97368.25
2023-01-15T16:38:07.803Z,97372.02
2023-01-15T16:40:39.239Z,97367.86
2023-01-15T16:43:15.389Z,97367.33
2023-01-15T16:46:18.237Z,97366.63
2023-01-15T16:48:49.438Z,97360.92
2023-01-15T16:51:35.517Z,97355.91
2023-01-15T16:54:06.146Z,97350.39
2023-01-15T16:56:40.742Z,97350.02
2023-01-15T16:59:28.006Z,97347.77
2023-01-15T17:02:22.051Z,97345.34
2023-01-15T17:04:53.618Z,97344.61
2023-01-15T17:07:27.950Z,97348.02
2023-01-15T17:09:59.052Z,97348.48
2023-01-15T17:12:40.331Z,97350.17
2023-01-15T17:15:14.748Z,97353.23
2023-01-15T17:17:49.305Z,97353.38
2023-01-15T17:20:24.162Z,97351.60
2023-01-15T17:22:52.640Z,97352.92
2023-01-15T17:25:31.156Z,97352.69
2023-01-15T17:28:01.183Z,97350.59
2023-01-15T17:30:31.707Z,97348.69
2023-01-15T17:33:01.914Z,97350.75
2023-01-15T17:35:35.771Z,97351.44
2023-01-15T17:38:06.948Z,97347.33
2023-01-15T17:40:35.156Z,97348.59
2023-01-15T17:43:04.103Z,97344.69
2023-01-15T17:45:34.108Z,97347.16
2023-01-15T17:48:04.110Z,97347.70
2023-01-15T17:50:32.220Z,97345.48
2023-01-15T17:53:00.685Z,97343.79
2023-01-15T17:55:47.365Z,97343.11
2023-01-15T17:58:35.248Z,97342.05
2023-01-15T18:01:29.594Z,97337.01
2023-01-15T18:04:16.545Z,97331.61
2023-01-15T18:06:50.111Z,97329.32
2023-01-15T18:09:20.172Z,97327.52
2023-01-15T18:11:48.519Z,97326.61
2023-01-15T18:14:16.801Z,97327.25
2023-01-15T18:16:45.003Z,97328.43
2023-01-15T18:19:13.376Z,97324.63
2023-01-15T18:21:42.356Z,97323.58
2023-01-15T18:24:12.759Z,97323.60
2023-01-15T18:26:42.250Z,97320.51
2023-01-15T18:29:11.053Z,97318.09
2023-01-15T18:31:40.257Z,97310.33
2023-01-15T18:34:09.079Z,97307.94
2023-01-15T18:36:37.382Z,97310.54
2023-01-15T18:39:08.460Z,97307.64
2023-01-15T18:41:37.093Z,97304.38
2023-01-15T18:44:31.667Z,97302.49
2023-01-15T18:47:14.488Z,97304.06
2023-01-15T18:49:44.236Z,97306.12
2023-01-15T18:52:34.138Z,97308.52
2023-01-15T18:55:04.783Z,97309.89
2023-01-15T18:57:34.876Z,97311.23
2023-01-15T19:00:05.445Z,97311.55
2023-01-15T19:02:33.994Z,97309.29
2023-01-15T19:05:02.259Z,97310.80
2023-01-15T19:07:31.419Z,97311.97
2023-01-15T19:09:59.479Z,97306.92
2023-01-15T19:12:27.659Z,97304.30
2023-01-15T19:15:16.819Z,97307.17
2023-01-15T19:18:03.821Z,97313.50
2023-01-15T19:20:32.686Z,97313.67
2023-01-15T19:23:05.312Z,97307.27
2023-01-15T19:25:40.590Z,97305.38
2023-01-15T19:28:11.981Z,97304.88
2023-01-15T19:30:40.573Z,97303.02
2023-01-15T19:33:09.947Z,97301.34
2023-01-15T19:35:39.730Z,97296.38
2023-01-15T19:38:10.698Z,97294.52
2023-01-15T19:40:42.159Z,97292.83
2023-01-15T19:43:30.075Z,97295.09
2023-01-15T19:46:16.952Z,97289.59
2023-01-15T19:49:04.289Z,97293.23
2023-01-15T19:51:51.147Z,97291.48
2023-01-15T19:54:39.455Z,97290.89
2023-01-15T19:57:08.171Z,97287.07
2023-01-15T19:59:37.130Z,97282.58
2023-01-15T20:02:05.297Z,97281.17
2023-01-15T20:04:33.693Z,97279.25
2023-01-15T20:07:01.886Z,97277.98
2023-01-15T20:09:29.885Z,97276.23
2023-01-15T20:12:16.389Z,97285.99
2023-01-15T20:14:47.240Z,97292.13
2023-01-15T20:17:15.919Z,97292.83
2023-01-15T20:19:44.119Z,97294.02
2023-01-15T20:22:13.349Z,97291.27
2023-01-15T20:24:44.196Z,97287.15
2023-01-15T20:27:13.811Z,97286.64
2023-01-15T20:29:44.761Z,97283.73
2023-01-15T20:32:13.136Z,97285.45
2023-01-15T20:34:41.663Z,97285.97
2023-01-15T20:37:10.483Z,97283.05
2023-01-15T20:39:39.351Z,97279.96
2023-01-15T20:42:26.009Z,97280.66
2023-01-15T20:44:54.120Z,97278.76
2023-01-15T20:47:46.281Z,97282.52
2023-01-15T20:50:16.975Z,97280.63
2023-01-15T20:52:47.467Z,97276.46
2023-01-15T20:55:17.054Z,97276.08
2023-01-15T20:57:45.614Z,97278.95
2023-01-15T21:00:19.995Z,97278.34
2023-01-15T21:02:48.793Z,97277.59
2023-01-15T21:05:17.352Z,97276.48
2023-01-15T21:07:45.455Z,97271.25
2023-01-15T21:10:14.380Z,97267.56
2023-01-15T21:12:42.902Z,97268.87
2023-01-15T21:15:11.969Z,97271.54
2023-01-15T21:17:40.250Z,97270.95
2023-01-15T21:20:11.092Z,97267.61
2023-01-15T21:22:40.105Z,97268.59
2023-01-15T21:25:13.458Z,97272.17
2023-01-15T21:27:41.484Z,97274.91
2023-01-15T21:30:11.524Z,97270.97
2023-01-15T21:32:41.332Z,97266.35
2023-01-15T21:35:10.763Z,97262.27
2023-01-15T21:37:39.703Z,97256.81
2023-01-15T21:40:09.695Z,97256.65
2023-01-15T21:43:13.263Z,97258.22
2023-01-15T21:45:41.720Z,97260.85
2023-01-15T21:48:09.888Z,97260.16
2023-01-15T21:50:38.317Z,97261.18
2023-01-15T21:53:06.280Z,97262.04
2023-01-15T21:55:34.361Z,97261.17
2023-01-15T21:58:03.000Z,97260.93
2023-01-15T22:00:31.484Z,97258.83
2023-01-15T22:02:59.712Z,97251.21
2023-01-15T22:05:28.030Z,97252.34
2023-01-15T22:07:56.406Z,97251.06
2023-01-15T22:10:24.452Z,97255.13
2023-01-15T22:12:52.473Z,97253.00
2023-01-15T22:15:20.466Z,97247.94
2023-01-15T22:17:51.716Z,97245.98
2023-01-15T22:20:20.764Z,97245.05
2023-01-15T22:22:49.136Z,97241.39
2023-01-15T22:25:17.474Z,97240.83
2023-01-15T22:27:45.389Z,97242.02
2023-01-15T22:30:15.816Z,97236.19
2023-01-15T22:32:43.893Z,97230.72
2023-01-15T22:35:11.938Z,97229.71
2023-01-15T22:37:40.133Z,97225.95
2023-01-15T22:40:09.276Z,97224.09
2023-01-15T22:42:37.402Z,97218.27
2023-01-15T22:45:06.035Z,97213.81
2023-01-15T22:47:33.997Z,97211.98
2023-01-15T22:50:02.263Z,97210.27
2023-01-15T22:52:31.290Z,97204.29
2023-01-15T22:54:59.654Z,97201.88
2023-01-15T22:57:29.574Z,97195.70
2023-01-15T22:59:58.237Z,97191.04
2023-01-15T23:02:45.271Z,97192.88
2023-01-15T23:05:13.523Z,97198.13
2023-01-15T23:07:41.910Z,97196.16
2023-01-15T23:10:11.661Z,97194.05
2023-01-15T23:12:41.621Z,97197.42
2023-01-15T23:15:16.207Z,97199.77
2023-01-15T23:17:44.376Z,97194.20
2023-01-15T23:20:13.405Z,97194.70
2023-01-15T23:22:41.428Z,97195.21
2023-01-15T23:25:09.661Z,97194.50
2023-01-15T23:27:37.846Z,97191.71
2023-01-15T23:30:07.169Z,97187.41
2023-01-15T23:32:35.436Z,97185.55
2023-01-15T23:35:03.785Z,97190.05
2023-01-15T23:37:32.008Z,97196.79
2023-01-15T23:40:00.206Z,97193.58
2023-01-15T23:42:47.179Z,97187.46
2023-01-15T23:45:33.866Z,97179.83
2023-01-15T23:48:02.282Z,97175.79
2023-01-15T23:50:30.389Z,97171.37
2023-01-15T23:52:58.730Z,97168.19
2023-01-15T23:55:27.130Z,97159.98
2023-01-15T23:57:55.199Z,97158.43
